sensor_id;sensor_type;location;lat;lon;timestamp;temperature;humidity
41630;DHT22;27322;49.488;8.480;2023-07-13T00:01:50;23.30;78.40
41630;DHT22;27322;49.488;8.480;2023-07-13T00:04:18;23.20;77.20
41630;DHT22;27322;49.488;8.480;2023-07-13T00:06:45;23.20;78.20
41630;DHT22;27322;49.488;8.480;2023-07-13T00:09:15;23.20;78.50
41630;DHT22;27322;49.488;8.480;2023-07-13T00:11:43;23.20;77.90
41630;DHT22;27322;49.488;8.480;2023-07-13T00:14:09;23.10;78.20
41630;DHT22;27322;49.488;8.480;2023-07-13T00:16:36;23.10;76.50
41630;DHT22;27322;49.488;8.480;2023-07-13T00:19:02;23.10;77.30
41630;DHT22;27322;49.488;8.480;2023-07-13T00:21:28;23.00;77.60
41630;DHT22;27322;49.488;8.480;2023-07-13T00:23:54;23.00;77.20
41630;DHT22;27322;49.488;8.480;2023-07-13T00:26:19;22.90;77.10
41630;DHT22;27322;49.488;8.480;2023-07-13T00:28:45;22.90;77.10
41630;DHT22;27322;49.488;8.480;2023-07-13T00:31:12;22.90;78.30
41630;DHT22;27322;49.488;8.480;2023-07-13T00:33:37;22.90;78.50
41630;DHT22;27322;49.488;8.480;2023-07-13T00:36:03;22.80;76.90
41630;DHT22;27322;49.488;8.480;2023-07-13T00:38:29;22.80;77.40
41630;DHT22;27322;49.488;8.480;2023-07-13T00:40:55;22.80;76.80
41630;DHT22;27322;49.488;8.480;2023-07-13T00:43:22;22.80;78.10
41630;DHT22;27322;49.488;8.480;2023-07-13T00:48:17;22.80;78.60
41630;DHT22;27322;49.488;8.480;2023-07-13T00:50:45;22.70;78.80
41630;DHT22;27322;49.488;8.480;2023-07-13T00:53:11;22.70;79.80
41630;DHT22;27322;49.488;8.480;2023-07-13T00:55:38;22.70;78.10
41630;DHT22;27322;49.488;8.480;2023-07-13T00:58:05;22.70;77.80
41630;DHT22;27322;49.488;8.480;2023-07-13T01:00:34;22.70;78.50
41630;DHT22;27322;49.488;8.480;2023-07-13T01:03:01;22.60;78.90
41630;DHT22;27322;49.488;8.480;2023-07-13T01:05:30;22.50;78.80
41630;DHT22;27322;49.488;8.480;2023-07-13T01:07:57;22.50;79.00
41630;DHT22;27322;49.488;8.480;2023-07-13T01:10:25;22.40;79.50
41630;DHT22;27322;49.488;8.480;2023-07-13T01:12:51;22.40;80.60
41630;DHT22;27322;49.488;8.480;2023-07-13T01:18:04;22.40;80.10
41630;DHT22;27322;49.488;8.480;2023-07-13T01:20:30;22.30;80.20
41630;DHT22;27322;49.488;8.480;2023-07-13T01:22:56;22.30;81.00
41630;DHT22;27322;49.488;8.480;2023-07-13T01:25:21;22.30;78.80
41630;DHT22;27322;49.488;8.480;2023-07-13T01:27:47;22.20;79.10
41630;DHT22;27322;49.488;8.480;2023-07-13T01:30:13;22.20;79.10
41630;DHT22;27322;49.488;8.480;2023-07-13T01:32:38;22.20;79.40
41630;DHT22;27322;49.488;8.480;2023-07-13T01:35:07;22.20;79.50
41630;DHT22;27322;49.488;8.480;2023-07-13T01:37:32;22.10;79.80
41630;DHT22;27322;49.488;8.480;2023-07-13T01:39:59;22.10;80.00
41630;DHT22;27322;49.488;8.480;2023-07-13T01:42:25;22.10;80.60
41630;DHT22;27322;49.488;8.480;2023-07-13T01:44:51;22.00;81.10
41630;DHT22;27322;49.488;8.480;2023-07-13T01:47:16;22.00;80.80
41630;DHT22;27322;49.488;8.480;2023-07-13T01:49:42;22.00;80.40
41630;DHT22;27322;49.488;8.480;2023-07-13T01:52:07;22.00;80.70
41630;DHT22;27322;49.488;8.480;2023-07-13T01:54:33;22.00;80.30
41630;DHT22;27322;49.488;8.480;2023-07-13T01:56:59;21.90;80.10
41630;DHT22;27322;49.488;8.480;2023-07-13T01:59:25;21.90;80.60
41630;DHT22;27322;49.488;8.480;2023-07-13T02:01:50;21.80;79.80
41630;DHT22;27322;49.488;8.480;2023-07-13T02:04:16;21.80;80.10
41630;DHT22;27322;49.488;8.480;2023-07-13T02:06:42;21.80;80.50
41630;DHT22;27322;49.488;8.480;2023-07-13T02:09:07;21.80;80.60
41630;DHT22;27322;49.488;8.480;2023-07-13T02:11:33;21.80;80.90
41630;DHT22;27322;49.488;8.480;2023-07-13T02:14:02;21.80;81.40
41630;DHT22;27322;49.488;8.480;2023-07-13T02:16:29;21.80;80.90
41630;DHT22;27322;49.488;8.480;2023-07-13T02:18:55;21.80;81.70
41630;DHT22;27322;49.488;8.480;2023-07-13T02:21:21;21.80;81.60
41630;DHT22;27322;49.488;8.480;2023-07-13T02:23:47;21.70;81.20
41630;DHT22;27322;49.488;8.480;2023-07-13T02:26:13;21.70;81.80
41630;DHT22;27322;49.488;8.480;2023-07-13T02:28:38;21.70;82.10
41630;DHT22;27322;49.488;8.480;2023-07-13T02:31:08;21.70;81.70
41630;DHT22;27322;49.488;8.480;2023-07-13T02:33:35;21.60;81.10
41630;DHT22;27322;49.488;8.480;2023-07-13T02:36:00;21.60;81.20
41630;DHT22;27322;49.488;8.480;2023-07-13T02:38:26;21.60;81.50
41630;DHT22;27322;49.488;8.480;2023-07-13T02:40:52;21.60;81.70
41630;DHT22;27322;49.488;8.480;2023-07-13T02:43:18;21.50;81.90
41630;DHT22;27322;49.488;8.480;2023-07-13T02:45:44;21.50;82.40
41630;DHT22;27322;49.488;8.480;2023-07-13T02:48:10;21.50;82.90
41630;DHT22;27322;49.488;8.480;2023-07-13T02:50:36;21.40;83.30
41630;DHT22;27322;49.488;8.480;2023-07-13T02:53:01;21.40;83.90
41630;DHT22;27322;49.488;8.480;2023-07-13T02:55:27;21.40;84.10
41630;DHT22;27322;49.488;8.480;2023-07-13T02:57:52;21.40;84.70
41630;DHT22;27322;49.488;8.480;2023-07-13T03:00:19;21.40;84.70
41630;DHT22;27322;49.488;8.480;2023-07-13T03:02:46;21.40;84.90
41630;DHT22;27322;49.488;8.480;2023-07-13T03:05:12;21.40;85.60
41630;DHT22;27322;49.488;8.480;2023-07-13T03:07:38;21.30;85.10
41630;DHT22;27322;49.488;8.480;2023-07-13T03:10:05;21.30;85.30
41630;DHT22;27322;49.488;8.480;2023-07-13T03:12:32;21.30;85.00
41630;DHT22;27322;49.488;8.480;2023-07-13T03:14:57;21.30;85.60
41630;DHT22;27322;49.488;8.480;2023-07-13T03:17:23;21.20;85.90
41630;DHT22;27322;49.488;8.480;2023-07-13T03:19:49;21.20;85.90
41630;DHT22;27322;49.488;8.480;2023-07-13T03:22:19;21.20;85.50
41630;DHT22;27322;49.488;8.480;2023-07-13T03:24:45;21.20;85.60
41630;DHT22;27322;49.488;8.480;2023-07-13T03:27:11;21.10;85.70
41630;DHT22;27322;49.488;8.480;2023-07-13T03:29:37;21.10;86.20
41630;DHT22;27322;49.488;8.480;2023-07-13T03:32:03;21.10;86.00
41630;DHT22;27322;49.488;8.480;2023-07-13T03:34:30;21.00;86.30
41630;DHT22;27322;49.488;8.480;2023-07-13T03:36:56;21.00;86.50
41630;DHT22;27322;49.488;8.480;2023-07-13T03:39:22;21.00;86.50
41630;DHT22;27322;49.488;8.480;2023-07-13T03:41:48;20.90;87.00
41630;DHT22;27322;49.488;8.480;2023-07-13T03:44:15;20.90;87.20
41630;DHT22;27322;49.488;8.480;2023-07-13T03:46:41;20.90;87.30
41630;DHT22;27322;49.488;8.480;2023-07-13T03:49:08;20.80;87.50
41630;DHT22;27322;49.488;8.480;2023-07-13T03:51:34;20.80;87.90
41630;DHT22;27322;49.488;8.480;2023-07-13T03:54:00;20.70;88.20
41630;DHT22;27322;49.488;8.480;2023-07-13T03:56:25;20.70;88.50
41630;DHT22;27322;49.488;8.480;2023-07-13T03:58:51;20.70;89.20
41630;DHT22;27322;49.488;8.480;2023-07-13T04:01:18;20.70;90.00
41630;DHT22;27322;49.488;8.480;2023-07-13T04:03:44;20.70;90.00
41630;DHT22;27322;49.488;8.480;2023-07-13T04:06:22;20.60;90.10
41630;DHT22;27322;49.488;8.480;2023-07-13T04:08:54;20.60;90.20
41630;DHT22;27322;49.488;8.480;2023-07-13T04:11:22;20.60;90.10
41630;DHT22;27322;49.488;8.480;2023-07-13T04:13:48;20.50;90.00
41630;DHT22;27322;49.488;8.480;2023-07-13T04:16:15;20.50;90.20
41630;DHT22;27322;49.488;8.480;2023-07-13T04:18:41;20.60;90.60
41630;DHT22;27322;49.488;8.480;2023-07-13T04:21:07;20.60;90.70
41630;DHT22;27322;49.488;8.480;2023-07-13T04:23:34;20.50;90.80
41630;DHT22;27322;49.488;8.480;2023-07-13T04:25:59;20.50;91.00
41630;DHT22;27322;49.488;8.480;2023-07-13T04:28:25;20.50;91.00
41630;DHT22;27322;49.488;8.480;2023-07-13T04:30:51;20.50;91.00
41630;DHT22;27322;49.488;8.480;2023-07-13T04:33:18;20.40;91.40
41630;DHT22;27322;49.488;8.480;2023-07-13T04:35:48;20.40;91.50
41630;DHT22;27322;49.488;8.480;2023-07-13T04:38:14;20.40;92.00
41630;DHT22;27322;49.488;8.480;2023-07-13T04:40:44;20.40;92.20
41630;DHT22;27322;49.488;8.480;2023-07-13T04:43:10;20.40;92.50
41630;DHT22;27322;49.488;8.480;2023-07-13T04:45:36;20.30;92.90
41630;DHT22;27322;49.488;8.480;2023-07-13T04:48:02;20.30;93.40
41630;DHT22;27322;49.488;8.480;2023-07-13T04:50:27;20.30;93.70
41630;DHT22;27322;49.488;8.480;2023-07-13T04:52:53;20.30;93.70
41630;DHT22;27322;49.488;8.480;2023-07-13T04:55:19;20.30;93.60
41630;DHT22;27322;49.488;8.480;2023-07-13T04:57:46;20.30;93.70
41630;DHT22;27322;49.488;8.480;2023-07-13T05:00:12;20.30;93.50
41630;DHT22;27322;49.488;8.480;2023-07-13T05:02:39;20.20;93.40
41630;DHT22;27322;49.488;8.480;2023-07-13T05:05:05;20.20;93.60
41630;DHT22;27322;49.488;8.480;2023-07-13T05:07:31;20.20;93.70
41630;DHT22;27322;49.488;8.480;2023-07-13T05:09:59;20.20;93.80
41630;DHT22;27322;49.488;8.480;2023-07-13T05:12:25;20.20;93.70
41630;DHT22;27322;49.488;8.480;2023-07-13T05:14:51;20.20;94.10
41630;DHT22;27322;49.488;8.480;2023-07-13T05:17:16;20.20;94.20
41630;DHT22;27322;49.488;8.480;2023-07-13T05:19:42;20.20;94.10
41630;DHT22;27322;49.488;8.480;2023-07-13T05:22:07;20.30;94.40
41630;DHT22;27322;49.488;8.480;2023-07-13T05:24:33;20.30;94.30
41630;DHT22;27322;49.488;8.480;2023-07-13T05:26:59;20.30;93.60
41630;DHT22;27322;49.488;8.480;2023-07-13T05:29:24;20.30;92.90
41630;DHT22;27322;49.488;8.480;2023-07-13T05:31:50;20.40;91.30
41630;DHT22;27322;49.488;8.480;2023-07-13T05:34:16;20.50;90.80
41630;DHT22;27322;49.488;8.480;2023-07-13T05:36:41;20.50;91.10
41630;DHT22;27322;49.488;8.480;2023-07-13T05:39:07;20.50;90.90
41630;DHT22;27322;49.488;8.480;2023-07-13T05:41:33;20.50;90.80
41630;DHT22;27322;49.488;8.480;2023-07-13T05:43:59;20.50;90.80
41630;DHT22;27322;49.488;8.480;2023-07-13T05:46:25;20.60;91.00
41630;DHT22;27322;49.488;8.480;2023-07-13T05:48:50;20.60;90.20
41630;DHT22;27322;49.488;8.480;2023-07-13T05:51:16;20.70;90.50
41630;DHT22;27322;49.488;8.480;2023-07-13T05:53:41;20.80;90.50
41630;DHT22;27322;49.488;8.480;2023-07-13T05:56:07;20.80;90.70
41630;DHT22;27322;49.488;8.480;2023-07-13T05:58:33;20.80;90.80
41630;DHT22;27322;49.488;8.480;2023-07-13T06:01:03;20.90;90.90
41630;DHT22;27322;49.488;8.480;2023-07-13T06:03:29;20.90;90.90
41630;DHT22;27322;49.488;8.480;2023-07-13T06:05:54;20.90;91.00
41630;DHT22;27322;49.488;8.480;2023-07-13T06:08:20;20.90;91.00
41630;DHT22;27322;49.488;8.480;2023-07-13T06:10:46;20.90;91.10
41630;DHT22;27322;49.488;8.480;2023-07-13T06:13:11;20.90;90.70
41630;DHT22;27322;49.488;8.480;2023-07-13T06:15:37;20.90;90.40
41630;DHT22;27322;49.488;8.480;2023-07-13T06:18:02;20.90;89.00
41630;DHT22;27322;49.488;8.480;2023-07-13T06:20:28;21.00;89.30
41630;DHT22;27322;49.488;8.480;2023-07-13T06:22:54;21.00;89.60
41630;DHT22;27322;49.488;8.480;2023-07-13T06:25:20;21.00;89.60
41630;DHT22;27322;49.488;8.480;2023-07-13T06:27:45;21.10;88.60
41630;DHT22;27322;49.488;8.480;2023-07-13T06:30:11;21.20;87.30
41630;DHT22;27322;49.488;8.480;2023-07-13T06:32:37;21.30;87.40
41630;DHT22;27322;49.488;8.480;2023-07-13T06:35:03;21.30;87.20
41630;DHT22;27322;49.488;8.480;2023-07-13T06:37:29;21.30;87.10
41630;DHT22;27322;49.488;8.480;2023-07-13T06:39:54;21.30;87.40
41630;DHT22;27322;49.488;8.480;2023-07-13T06:42:20;21.30;87.80
41630;DHT22;27322;49.488;8.480;2023-07-13T06:44:46;21.30;87.80
41630;DHT22;27322;49.488;8.480;2023-07-13T06:47:12;21.40;87.30
41630;DHT22;27322;49.488;8.480;2023-07-13T06:49:37;21.40;86.30
41630;DHT22;27322;49.488;8.480;2023-07-13T06:52:03;21.40;86.50
41630;DHT22;27322;49.488;8.480;2023-07-13T06:54:29;21.40;85.70
41630;DHT22;27322;49.488;8.480;2023-07-13T06:56:55;21.40;85.80
41630;DHT22;27322;49.488;8.480;2023-07-13T06:59:20;21.50;85.70
41630;DHT22;27322;49.488;8.480;2023-07-13T07:01:46;21.60;83.10
41630;DHT22;27322;49.488;8.480;2023-07-13T07:04:11;21.70;83.20
41630;DHT22;27322;49.488;8.480;2023-07-13T07:06:37;21.80;81.90
41630;DHT22;27322;49.488;8.480;2023-07-13T07:09:03;21.90;81.50
41630;DHT22;27322;49.488;8.480;2023-07-13T07:11:28;22.00;81.00
41630;DHT22;27322;49.488;8.480;2023-07-13T07:13:57;22.10;80.60
41630;DHT22;27322;49.488;8.480;2023-07-13T07:16:25;22.10;80.90
41630;DHT22;27322;49.488;8.480;2023-07-13T07:18:50;22.10;81.10
41630;DHT22;27322;49.488;8.480;2023-07-13T07:21:16;22.10;80.50
41630;DHT22;27322;49.488;8.480;2023-07-13T07:23:42;22.20;80.80
41630;DHT22;27322;49.488;8.480;2023-07-13T07:26:08;22.20;80.90
41630;DHT22;27322;49.488;8.480;2023-07-13T07:28:35;22.20;80.30
41630;DHT22;27322;49.488;8.480;2023-07-13T07:31:01;22.20;80.80
41630;DHT22;27322;49.488;8.480;2023-07-13T07:33:27;22.20;81.90
41630;DHT22;27322;49.488;8.480;2023-07-13T07:35:52;22.30;82.20
41630;DHT22;27322;49.488;8.480;2023-07-13T07:38:18;22.40;82.30
41630;DHT22;27322;49.488;8.480;2023-07-13T07:40:44;22.40;82.20
41630;DHT22;27322;49.488;8.480;2023-07-13T07:43:11;22.50;81.00
41630;DHT22;27322;49.488;8.480;2023-07-13T07:45:38;22.50;80.80
41630;DHT22;27322;49.488;8.480;2023-07-13T07:48:05;22.50;80.60
41630;DHT22;27322;49.488;8.480;2023-07-13T07:50:31;22.60;81.10
41630;DHT22;27322;49.488;8.480;2023-07-13T07:52:57;22.60;82.30
41630;DHT22;27322;49.488;8.480;2023-07-13T07:55:23;22.60;82.50
41630;DHT22;27322;49.488;8.480;2023-07-13T07:57:50;22.70;82.10
41630;DHT22;27322;49.488;8.480;2023-07-13T08:00:16;22.80;81.20
41630;DHT22;27322;49.488;8.480;2023-07-13T08:02:45;22.80;81.90
41630;DHT22;27322;49.488;8.480;2023-07-13T08:05:11;22.80;81.00
41630;DHT22;27322;49.488;8.480;2023-07-13T08:07:37;22.80;80.70
41630;DHT22;27322;49.488;8.480;2023-07-13T08:10:04;22.90;81.70
41630;DHT22;27322;49.488;8.480;2023-07-13T08:12:37;22.90;81.20
41630;DHT22;27322;49.488;8.480;2023-07-13T08:15:04;23.00;79.90
41630;DHT22;27322;49.488;8.480;2023-07-13T08:17:30;23.10;80.70
41630;DHT22;27322;49.488;8.480;2023-07-13T08:19:56;23.10;78.90
41630;DHT22;27322;49.488;8.480;2023-07-13T08:22:21;23.30;78.10
41630;DHT22;27322;49.488;8.480;2023-07-13T08:24:47;23.30;78.40
41630;DHT22;27322;49.488;8.480;2023-07-13T08:27:20;23.40;78.10
41630;DHT22;27322;49.488;8.480;2023-07-13T08:29:47;23.40;77.50
41630;DHT22;27322;49.488;8.480;2023-07-13T08:32:13;23.40;78.00
41630;DHT22;27322;49.488;8.480;2023-07-13T08:34:39;23.40;78.40
41630;DHT22;27322;49.488;8.480;2023-07-13T08:37:05;23.50;79.40
41630;DHT22;27322;49.488;8.480;2023-07-13T08:39:32;23.50;78.30
41630;DHT22;27322;49.488;8.480;2023-07-13T08:42:15;23.60;78.80
41630;DHT22;27322;49.488;8.480;2023-07-13T08:45:07;23.60;79.00
41630;DHT22;27322;49.488;8.480;2023-07-13T08:47:39;23.60;78.20
41630;DHT22;27322;49.488;8.480;2023-07-13T08:50:11;23.70;76.30
41630;DHT22;27322;49.488;8.480;2023-07-13T08:52:40;23.70;76.60
41630;DHT22;27322;49.488;8.480;2023-07-13T08:55:22;23.80;76.60
41630;DHT22;27322;49.488;8.480;2023-07-13T08:57:54;23.80;76.90
41630;DHT22;27322;49.488;8.480;2023-07-13T09:00:22;23.80;80.10
41630;DHT22;27322;49.488;8.480;2023-07-13T09:02:56;23.80;79.00
41630;DHT22;27322;49.488;8.480;2023-07-13T09:05:43;23.90;77.40
41630;DHT22;27322;49.488;8.480;2023-07-13T09:10:45;23.90;78.00
41630;DHT22;27322;49.488;8.480;2023-07-13T09:13:28;24.00;78.10
41630;DHT22;27322;49.488;8.480;2023-07-13T09:15:56;24.10;77.20
41630;DHT22;27322;49.488;8.480;2023-07-13T09:18:33;24.20;77.10
41630;DHT22;27322;49.488;8.480;2023-07-13T09:23:31;24.20;77.70
41630;DHT22;27322;49.488;8.480;2023-07-13T09:26:15;24.30;76.90
41630;DHT22;27322;49.488;8.480;2023-07-13T09:28:43;24.40;76.00
41630;DHT22;27322;49.488;8.480;2023-07-13T09:33:47;24.50;75.30
41630;DHT22;27322;49.488;8.480;2023-07-13T09:41:54;24.60;73.40
41630;DHT22;27322;49.488;8.480;2023-07-13T09:44:35;24.60;73.60
41630;DHT22;27322;49.488;8.480;2023-07-13T09:47:02;24.50;73.90
41630;DHT22;27322;49.488;8.480;2023-07-13T09:49:37;24.50;74.80
41630;DHT22;27322;49.488;8.480;2023-07-13T09:52:05;24.40;75.00
41630;DHT22;27322;49.488;8.480;2023-07-13T09:54:36;24.40;74.60
41630;DHT22;27322;49.488;8.480;2023-07-13T09:57:03;24.50;74.60
41630;DHT22;27322;49.488;8.480;2023-07-13T09:59:32;24.50;75.90
41630;DHT22;27322;49.488;8.480;2023-07-13T10:01:58;24.50;75.90
41630;DHT22;27322;49.488;8.480;2023-07-13T10:04:32;24.50;75.40
41630;DHT22;27322;49.488;8.480;2023-07-13T10:07:08;24.50;73.50
41630;DHT22;27322;49.488;8.480;2023-07-13T10:09:35;24.40;72.30
41630;DHT22;27322;49.488;8.480;2023-07-13T10:12:00;24.40;73.30
41630;DHT22;27322;49.488;8.480;2023-07-13T10:14:28;24.30;73.30
41630;DHT22;27322;49.488;8.480;2023-07-13T10:16:59;24.30;73.90
41630;DHT22;27322;49.488;8.480;2023-07-13T10:19:30;24.20;74.30
41630;DHT22;27322;49.488;8.480;2023-07-13T10:22:12;24.20;73.20
41630;DHT22;27322;49.488;8.480;2023-07-13T10:24:39;24.20;73.20
41630;DHT22;27322;49.488;8.480;2023-07-13T10:27:18;24.10;73.70
41630;DHT22;27322;49.488;8.480;2023-07-13T10:29:55;24.10;73.20
41630;DHT22;27322;49.488;8.480;2023-07-13T10:32:25;24.10;71.80
41630;DHT22;27322;49.488;8.480;2023-07-13T10:34:51;24.00;72.10
41630;DHT22;27322;49.488;8.480;2023-07-13T10:37:24;24.00;73.40
41630;DHT22;27322;49.488;8.480;2023-07-13T10:39:54;24.10;73.20
41630;DHT22;27322;49.488;8.480;2023-07-13T10:42:33;24.20;72.90
41630;DHT22;27322;49.488;8.480;2023-07-13T10:45:00;24.30;72.50
41630;DHT22;27322;49.488;8.480;2023-07-13T10:47:26;24.30;71.70
41630;DHT22;27322;49.488;8.480;2023-07-13T10:49:56;24.40;71.60
41630;DHT22;27322;49.488;8.480;2023-07-13T10:52:48;24.40;71.50
41630;DHT22;27322;49.488;8.480;2023-07-13T10:55:36;24.40;72.70
41630;DHT22;27322;49.488;8.480;2023-07-13T10:58:12;24.50;72.80
41630;DHT22;27322;49.488;8.480;2023-07-13T11:01:11;24.60;72.40
41630;DHT22;27322;49.488;8.480;2023-07-13T11:06:16;24.70;69.60
41630;DHT22;27322;49.488;8.480;2023-07-13T11:18:48;24.80;67.70
41630;DHT22;27322;49.488;8.480;2023-07-13T11:23:52;24.80;69.00
41630;DHT22;27322;49.488;8.480;2023-07-13T11:26:39;24.80;68.20
41630;DHT22;27322;49.488;8.480;2023-07-13T11:29:33;24.80;66.70
41630;DHT22;27322;49.488;8.480;2023-07-13T11:32:22;24.70;67.90
41630;DHT22;27322;49.488;8.480;2023-07-13T11:34:48;24.70;68.90
41630;DHT22;27322;49.488;8.480;2023-07-13T11:37:16;24.70;66.90
41630;DHT22;27322;49.488;8.480;2023-07-13T11:39:44;24.60;67.80
41630;DHT22;27322;49.488;8.480;2023-07-13T11:42:13;24.70;67.70
41630;DHT22;27322;49.488;8.480;2023-07-13T11:44:45;24.70;68.00
41630;DHT22;27322;49.488;8.480;2023-07-13T11:47:17;24.80;67.10
41630;DHT22;27322;49.488;8.480;2023-07-13T11:49:45;24.80;68.00
41630;DHT22;27322;49.488;8.480;2023-07-13T11:52:19;24.80;68.00
41630;DHT22;27322;49.488;8.480;2023-07-13T11:54:49;24.70;68.70
41630;DHT22;27322;49.488;8.480;2023-07-13T11:57:28;24.80;69.10
41630;DHT22;27322;49.488;8.480;2023-07-13T11:59:57;24.80;69.40
41630;DHT22;27322;49.488;8.480;2023-07-13T12:02:41;24.90;67.80
41630;DHT22;27322;49.488;8.480;2023-07-13T12:05:11;25.00;68.00
41630;DHT22;27322;49.488;8.480;2023-07-13T12:07:38;25.00;64.90
41630;DHT22;27322;49.488;8.480;2023-07-13T12:10:24;25.00;65.40
41630;DHT22;27322;49.488;8.480;2023-07-13T12:13:00;25.00;66.30
41630;DHT22;27322;49.488;8.480;2023-07-13T12:15:45;25.10;63.30
41630;DHT22;27322;49.488;8.480;2023-07-13T12:18:18;25.10;65.90
41630;DHT22;27322;49.488;8.480;2023-07-13T12:20:45;25.10;64.70
41630;DHT22;27322;49.488;8.480;2023-07-13T12:23:24;25.00;65.40
41630;DHT22;27322;49.488;8.480;2023-07-13T12:25:51;25.00;65.60
41630;DHT22;27322;49.488;8.480;2023-07-13T12:28:21;25.00;64.60
41630;DHT22;27322;49.488;8.480;2023-07-13T12:30:49;25.00;65.00
41630;DHT22;27322;49.488;8.480;2023-07-13T12:33:16;25.00;67.20
41630;DHT22;27322;49.488;8.480;2023-07-13T12:35:46;25.00;66.60
41630;DHT22;27322;49.488;8.480;2023-07-13T12:38:13;24.90;66.80
41630;DHT22;27322;49.488;8.480;2023-07-13T12:40:39;25.00;66.40
41630;DHT22;27322;49.488;8.480;2023-07-13T12:43:13;25.00;63.60
41630;DHT22;27322;49.488;8.480;2023-07-13T12:48:29;25.00;64.90
41630;DHT22;27322;49.488;8.480;2023-07-13T12:50:55;25.00;64.80
41630;DHT22;27322;49.488;8.480;2023-07-13T12:53:23;25.00;65.10
41630;DHT22;27322;49.488;8.480;2023-07-13T12:55:57;25.00;66.20
41630;DHT22;27322;49.488;8.480;2023-07-13T12:58:28;25.00;65.10
41630;DHT22;27322;49.488;8.480;2023-07-13T13:00:57;25.00;63.60
41630;DHT22;27322;49.488;8.480;2023-07-13T13:08:45;25.00;66.70
41630;DHT22;27322;49.488;8.480;2023-07-13T13:11:11;25.00;66.70
41630;DHT22;27322;49.488;8.480;2023-07-13T13:13:36;25.00;66.20
41630;DHT22;27322;49.488;8.480;2023-07-13T13:16:10;25.10;65.30
41630;DHT22;27322;49.488;8.480;2023-07-13T13:18:36;25.10;66.70
41630;DHT22;27322;49.488;8.480;2023-07-13T13:21:02;25.10;65.40
41630;DHT22;27322;49.488;8.480;2023-07-13T13:23:28;25.10;66.60
41630;DHT22;27322;49.488;8.480;2023-07-13T13:25:53;25.10;66.60
41630;DHT22;27322;49.488;8.480;2023-07-13T13:28:20;25.10;65.80
41630;DHT22;27322;49.488;8.480;2023-07-13T13:30:47;25.00;66.70
41630;DHT22;27322;49.488;8.480;2023-07-13T13:33:15;25.00;66.60
41630;DHT22;27322;49.488;8.480;2023-07-13T13:35:42;25.00;64.90
41630;DHT22;27322;49.488;8.480;2023-07-13T13:40:37;25.00;66.80
41630;DHT22;27322;49.488;8.480;2023-07-13T13:43:09;25.00;67.00
41630;DHT22;27322;49.488;8.480;2023-07-13T13:45:39;25.00;66.80
41630;DHT22;27322;49.488;8.480;2023-07-13T13:48:05;25.00;65.20
41630;DHT22;27322;49.488;8.480;2023-07-13T13:50:31;25.00;65.90
41630;DHT22;27322;49.488;8.480;2023-07-13T13:52:56;25.00;64.90
41630;DHT22;27322;49.488;8.480;2023-07-13T13:55:22;25.00;66.20
41630;DHT22;27322;49.488;8.480;2023-07-13T13:57:49;25.00;66.30
41630;DHT22;27322;49.488;8.480;2023-07-13T14:00:16;24.90;66.30
41630;DHT22;27322;49.488;8.480;2023-07-13T14:02:46;25.00;66.10
41630;DHT22;27322;49.488;8.480;2023-07-13T14:05:14;25.00;67.50
41630;DHT22;27322;49.488;8.480;2023-07-13T14:07:41;25.00;67.10
41630;DHT22;27322;49.488;8.480;2023-07-13T14:10:25;25.00;66.40
41630;DHT22;27322;49.488;8.480;2023-07-13T14:12:52;25.00;68.10
41630;DHT22;27322;49.488;8.480;2023-07-13T14:15:26;25.00;66.60
41630;DHT22;27322;49.488;8.480;2023-07-13T14:17:52;24.90;65.80
41630;DHT22;27322;49.488;8.480;2023-07-13T14:20:20;25.00;66.40
41630;DHT22;27322;49.488;8.480;2023-07-13T14:22:46;24.90;68.20
41630;DHT22;27322;49.488;8.480;2023-07-13T14:25:13;24.90;67.00
41630;DHT22;27322;49.488;8.480;2023-07-13T14:27:40;24.90;68.50
41630;DHT22;27322;49.488;8.480;2023-07-13T14:30:14;24.90;68.20
41630;DHT22;27322;49.488;8.480;2023-07-13T14:32:40;24.90;68.10
41630;DHT22;27322;49.488;8.480;2023-07-13T14:35:10;24.90;68.20
41630;DHT22;27322;49.488;8.480;2023-07-13T14:37:36;24.90;65.90
41630;DHT22;27322;49.488;8.480;2023-07-13T14:40:01;24.90;67.10
41630;DHT22;27322;49.488;8.480;2023-07-13T14:42:27;24.90;67.10
41630;DHT22;27322;49.488;8.480;2023-07-13T14:44:53;24.90;67.10
41630;DHT22;27322;49.488;8.480;2023-07-13T14:47:20;24.80;68.30
41630;DHT22;27322;49.488;8.480;2023-07-13T14:49:45;24.80;68.40
41630;DHT22;27322;49.488;8.480;2023-07-13T14:52:23;24.80;69.20
41630;DHT22;27322;49.488;8.480;2023-07-13T14:54:49;24.80;70.10
41630;DHT22;27322;49.488;8.480;2023-07-13T14:57:19;24.80;69.80
41630;DHT22;27322;49.488;8.480;2023-07-13T14:59:45;24.80;66.70
41630;DHT22;27322;49.488;8.480;2023-07-13T15:02:19;24.80;67.20
41630;DHT22;27322;49.488;8.480;2023-07-13T15:04:47;24.80;68.60
41630;DHT22;27322;49.488;8.480;2023-07-13T15:07:13;24.80;68.50
41630;DHT22;27322;49.488;8.480;2023-07-13T15:09:41;24.90;67.60
41630;DHT22;27322;49.488;8.480;2023-07-13T15:12:06;24.90;65.70
41630;DHT22;27322;49.488;8.480;2023-07-13T15:14:32;24.90;65.80
41630;DHT22;27322;49.488;8.480;2023-07-13T15:16:58;24.90;63.10
41630;DHT22;27322;49.488;8.480;2023-07-13T15:19:25;24.90;65.90
41630;DHT22;27322;49.488;8.480;2023-07-13T15:21:51;25.00;66.80
41630;DHT22;27322;49.488;8.480;2023-07-13T15:24:17;25.00;64.90
41630;DHT22;27322;49.488;8.480;2023-07-13T15:26:43;25.00;65.40
41630;DHT22;27322;49.488;8.480;2023-07-13T15:29:11;25.00;66.80
41630;DHT22;27322;49.488;8.480;2023-07-13T15:31:37;24.90;65.10
41630;DHT22;27322;49.488;8.480;2023-07-13T15:34:11;24.90;66.20
41630;DHT22;27322;49.488;8.480;2023-07-13T15:36:36;24.90;66.10
41630;DHT22;27322;49.488;8.480;2023-07-13T15:39:02;24.90;66.20
41630;DHT22;27322;49.488;8.480;2023-07-13T15:41:28;24.90;65.30
41630;DHT22;27322;49.488;8.480;2023-07-13T15:43:56;24.90;65.80
41630;DHT22;27322;49.488;8.480;2023-07-13T15:46:26;24.90;67.30
41630;DHT22;27322;49.488;8.480;2023-07-13T15:48:53;24.90;65.60
41630;DHT22;27322;49.488;8.480;2023-07-13T15:51:30;24.90;64.30
41630;DHT22;27322;49.488;8.480;2023-07-13T15:54:03;24.80;64.40
41630;DHT22;27322;49.488;8.480;2023-07-13T15:56:35;24.80;65.90
41630;DHT22;27322;49.488;8.480;2023-07-13T15:59:02;24.80;65.90
41630;DHT22;27322;49.488;8.480;2023-07-13T16:01:29;24.80;66.10
41630;DHT22;27322;49.488;8.480;2023-07-13T16:03:55;24.80;64.80
41630;DHT22;27322;49.488;8.480;2023-07-13T16:06:32;24.80;65.30
41630;DHT22;27322;49.488;8.480;2023-07-13T16:09:00;24.80;66.70
41630;DHT22;27322;49.488;8.480;2023-07-13T16:11:32;24.80;66.70
41630;DHT22;27322;49.488;8.480;2023-07-13T16:13:58;24.80;66.30
41630;DHT22;27322;49.488;8.480;2023-07-13T16:16:30;24.70;66.70
41630;DHT22;27322;49.488;8.480;2023-07-13T16:18:58;24.70;67.70
41630;DHT22;27322;49.488;8.480;2023-07-13T16:21:26;24.80;67.60